Time;durP1;ratioP1;P1;durP2;ratioP2;P2;SDS_P1;SDS_P2;PMS_P1;PMS_P2;Temp;Humidity;BMP_temperature;BMP_pressure;BME280_temperature;BME280_humidity;BME280_pressure;Samples;Min_cycle;Max_cycle;Signal;HPM_P1;HPM_P2
2021/11/21 00:01:34;;;;;;;19.42;11.82;;;3.60;99.90;;;;;;5050477;28;20208;-69
2021/11/21 00:04:01;;;;;;;16.20;12.48;;;3.60;99.90;;;;;;5050307;28;20211;-68
2021/11/21 00:06:28;;;;;;;13.23;10.95;;;3.50;99.90;;;;;;5050584;28;20217;-68
2021/11/21 00:08:55;;;;;;;21.08;12.57;;;3.50;99.90;;;;;;5050323;28;20660;-68
2021/11/21 00:11:23;;;;;;;17.40;11.80;;;3.40;99.90;;;;;;5050079;28;20582;-68
2021/11/21 00:13:51;;;;;;;16.52;11.85;;;3.30;99.90;;;;;;5050615;28;20210;-68
2021/11/21 00:16:19;;;;;;;16.00;12.20;;;3.30;99.90;;;;;;5050084;28;20197;-69
2021/11/21 00:18:46;;;;;;;15.65;12.13;;;3.30;99.90;;;;;;5051087;28;20204;-69
2021/11/21 00:21:13;;;;;;;15.75;11.85;;;3.40;99.90;;;;;;5035470;28;20209;-69
2021/11/21 00:23:40;;;;;;;12.23;9.85;;;3.40;99.90;;;;;;5030788;28;20673;-68
2021/11/21 00:26:06;;;;;;;10.40;9.10;;;3.40;99.90;;;;;;5049744;28;20204;-68
2021/11/21 00:28:35;;;;;;;10.52;8.57;;;3.40;99.90;;;;;;5050529;28;20237;-68
2021/11/21 00:31:02;;;;;;;8.60;7.40;;;3.30;99.90;;;;;;5050268;28;20201;-68
2021/11/21 00:33:29;;;;;;;8.82;7.65;;;3.20;99.90;;;;;;5050711;28;20204;-68
2021/11/21 00:35:56;;;;;;;11.02;7.70;;;3.10;99.90;;;;;;5050636;28;20205;-68
2021/11/21 00:38:23;;;;;;;9.95;8.50;;;3.00;99.90;;;;;;5050543;28;20217;-68
2021/11/21 00:40:51;;;;;;;9.35;7.25;;;3.00;99.90;;;;;;5050466;28;20201;-68
2021/11/21 00:43:19;;;;;;;10.27;8.07;;;2.90;99.90;;;;;;5050623;28;20204;-68
2021/11/21 00:45:48;;;;;;;9.15;8.02;;;3.00;99.90;;;;;;5050520;28;20205;-68
2021/11/21 00:48:20;;;;;;;10.00;7.88;;;3.10;99.90;;;;;;5050235;28;20235;-68
2021/11/21 00:50:47;;;;;;;13.77;8.68;;;3.20;99.90;;;;;;5049681;28;20237;-68
2021/11/21 00:53:14;;;;;;;10.85;9.02;;;3.20;99.90;;;;;;5050373;28;20208;-68
2021/11/21 00:55:44;;;;;;;9.45;8.40;;;3.10;99.90;;;;;;5050417;28;20677;-68
2021/11/21 00:58:12;;;;;;;10.57;8.00;;;3.10;99.90;;;;;;5050230;28;20259;-68
2021/11/21 01:00:41;;;;;;;9.85;8.18;;;3.00;99.90;;;;;;5050526;28;20201;-68
2021/11/21 01:03:12;;;;;;;9.15;7.60;;;3.00;99.90;;;;;;5049810;28;20201;-68
2021/11/21 01:05:40;;;;;;;9.50;7.60;;;3.00;99.90;;;;;;5050858;28;20287;-68
2021/11/21 01:08:06;;;;;;;11.20;7.93;;;2.90;99.90;;;;;;5049913;28;20228;-68
2021/11/21 01:10:33;;;;;;;10.82;7.32;;;2.90;99.90;;;;;;5050454;28;20611;-68
2021/11/21 01:13:00;;;;;;;10.13;8.27;;;2.90;99.90;;;;;;5049944;28;20266;-68
2021/11/21 01:15:28;;;;;;;9.02;7.35;;;2.90;99.90;;;;;;5050019;28;20208;-68
2021/11/21 01:17:59;;;;;;;9.02;7.20;;;3.00;99.90;;;;;;5050164;28;20217;-68
2021/11/21 01:20:30;;;;;;;9.15;6.80;;;3.00;99.90;;;;;;5050275;28;20201;-68
2021/11/21 01:22:58;;;;;;;8.43;6.93;;;3.10;99.90;;;;;;5049729;28;20247;-68
2021/11/21 01:25:25;;;;;;;9.27;6.80;;;3.10;99.90;;;;;;5050138;28;20300;-68
2021/11/21 01:27:53;;;;;;;8.73;7.22;;;3.20;99.90;;;;;;5050074;28;20217;-68
2021/11/21 01:30:23;;;;;;;7.57;6.72;;;3.10;99.90;;;;;;5050154;28;20208;-68
2021/11/21 01:32:51;;;;;;;9.70;7.00;;;3.20;99.90;;;;;;5049488;28;20692;-68
2021/11/21 01:35:17;;;;;;;9.40;7.13;;;3.20;99.90;;;;;;5050086;28;20575;-68
2021/11/21 01:37:46;;;;;;;7.70;6.90;;;3.30;99.90;;;;;;5049887;28;20217;-68
2021/11/21 01:40:15;;;;;;;8.00;6.50;;;3.20;99.90;;;;;;5050030;28;20206;-68
2021/11/21 01:42:43;;;;;;;9.18;6.72;;;3.30;99.90;;;;;;5049712;28;20205;-68
2021/11/21 01:45:11;;;;;;;7.90;6.32;;;3.30;99.90;;;;;;5049662;28;20210;-68
2021/11/21 01:47:38;;;;;;;7.65;6.30;;;3.30;99.90;;;;;;5049877;28;20261;-68
2021/11/21 01:50:07;;;;;;;7.88;6.25;;;3.30;99.90;;;;;;5049736;28;20209;-68
2021/11/21 01:52:34;;;;;;;7.95;6.78;;;3.30;99.90;;;;;;5049482;28;20224;-68
2021/11/21 01:55:02;;;;;;;6.28;5.20;;;3.30;99.90;;;;;;5049654;28;20205;-68
2021/11/21 01:57:29;;;;;;;7.50;5.95;;;3.30;99.90;;;;;;5049874;28;20315;-68
2021/11/21 01:59:59;;;;;;;8.55;6.35;;;3.30;99.90;;;;;;5050020;28;20209;-68
2021/11/21 02:02:26;;;;;;;6.88;6.20;;;3.30;99.90;;;;;;5052459;28;20209;-68
2021/11/21 02:04:53;;;;;;;6.70;5.30;;;3.30;99.90;;;;;;5053617;28;20212;-68
2021/11/21 02:07:20;;;;;;;6.32;5.70;;;3.30;99.90;;;;;;5052823;28;20233;-68
2021/11/21 02:09:47;;;;;;;7.80;6.10;;;3.30;99.90;;;;;;5053521;28;20205;-68
2021/11/21 02:12:15;;;;;;;6.55;5.63;;;3.30;99.90;;;;;;5052766;28;20271;-68
2021/11/21 02:14:41;;;;;;;8.77;5.65;;;3.30;99.90;;;;;;5053152;28;20205;-68
2021/11/21 02:17:08;;;;;;;6.88;6.05;;;3.30;99.90;;;;;;5053118;28;20221;-68
2021/11/21 02:19:35;;;;;;;6.15;5.20;;;3.30;99.90;;;;;;5053115;28;20201;-68
2021/11/21 02:22:03;;;;;;;7.82;5.90;;;3.30;99.90;;;;;;5052561;28;20201;-68
2021/11/21 02:24:30;;;;;;;6.72;6.00;;;3.30;99.90;;;;;;5052962;28;20197;-68
2021/11/21 02:26:57;;;;;;;7.07;6.00;;;3.30;99.90;;;;;;5053023;28;20229;-67
2021/11/21 02:29:23;;;;;;;6.15;5.18;;;3.30;99.90;;;;;;5052979;28;20228;-67
2021/11/21 02:31:50;;;;;;;5.30;4.80;;;3.30;99.90;;;;;;5052291;28;20688;-67
2021/11/21 02:34:17;;;;;;;6.68;5.40;;;3.30;99.90;;;;;;5052867;28;20208;-67
2021/11/21 02:36:44;;;;;;;5.63;5.03;;;3.30;99.90;;;;;;5052771;28;20892;-67
2021/11/21 02:39:12;;;;;;;6.03;5.43;;;3.20;99.90;;;;;;5052878;28;20342;-68
2021/11/21 02:41:40;;;;;;;5.90;4.65;;;3.20;99.90;;;;;;5052282;28;20684;-67
2021/11/21 02:44:06;;;;;;;6.93;5.75;;;3.20;99.90;;;;;;5052424;28;20202;-68
2021/11/21 02:46:34;;;;;;;6.15;5.40;;;3.20;99.90;;;;;;5052776;28;20232;-67
2021/11/21 02:49:02;;;;;;;5.93;5.32;;;3.20;99.90;;;;;;5052206;28;20294;-67
2021/11/21 02:51:28;;;;;;;5.00;4.50;;;3.20;99.90;;;;;;5052208;28;20213;-67
2021/11/21 02:53:55;;;;;;;6.18;5.45;;;3.20;99.90;;;;;;5052321;28;20204;-68
2021/11/21 02:56:23;;;;;;;5.95;5.35;;;3.10;99.90;;;;;;5052595;28;20197;-68
2021/11/21 02:58:50;;;;;;;5.80;5.30;;;3.10;99.90;;;;;;5052599;28;20578;-67
2021/11/21 03:01:20;;;;;;;7.05;4.70;;;3.10;99.90;;;;;;5051757;28;20208;-68
2021/11/21 03:03:47;;;;;;;5.10;4.60;;;3.10;99.90;;;;;;5052589;28;20204;-68
2021/11/21 03:06:14;;;;;;;5.30;4.80;;;3.10;99.90;;;;;;5052118;28;20212;-68
2021/11/21 03:08:41;;;;;;;6.35;5.75;;;3.10;99.90;;;;;;5052188;28;20712;-67
2021/11/21 03:11:18;;;;;;;5.40;4.85;;;3.10;99.90;;;;;;5051797;28;20205;-67
2021/11/21 03:13:46;;;;;;;6.00;4.95;;;3.10;99.90;;;;;;5051376;28;20201;-67
2021/11/21 03:16:13;;;;;;;6.20;5.35;;;3.10;99.90;;;;;;5052075;28;20205;-67
2021/11/21 03:18:40;;;;;;;5.82;5.22;;;3.10;99.90;;;;;;5051956;28;20255;-68
2021/11/21 03:21:07;;;;;;;5.70;5.10;;;3.10;99.90;;;;;;5051472;28;20200;-67
2021/11/21 03:23:34;;;;;;;5.88;5.25;;;3.10;99.90;;;;;;5051981;28;20235;-67
2021/11/21 03:26:01;;;;;;;5.75;5.13;;;3.10;99.90;;;;;;5051969;28;20211;-67
2021/11/21 03:28:28;;;;;;;6.10;4.50;;;3.00;99.90;;;;;;5051862;28;20225;-68
2021/11/21 03:30:56;;;;;;;6.65;5.63;;;3.00;99.90;;;;;;5051167;28;20677;-68
2021/11/21 03:33:22;;;;;;;6.53;5.60;;;2.90;99.90;;;;;;5051851;28;20201;-67
2021/11/21 03:35:49;;;;;;;5.57;5.07;;;2.90;99.90;;;;;;5051498;28;20197;-67
2021/11/21 03:38:16;;;;;;;6.60;4.90;;;2.90;99.90;;;;;;5051669;28;20231;-68
2021/11/21 03:40:43;;;;;;;6.10;4.85;;;2.80;99.90;;;;;;5051720;28;20212;-68
2021/11/21 03:43:10;;;;;;;6.03;5.35;;;2.80;99.90;;;;;;5051033;28;20756;-68
2021/11/21 03:45:37;;;;;;;5.72;4.82;;;2.80;99.90;;;;;;5051661;28;20583;-68
2021/11/21 03:48:05;;;;;;;5.70;5.20;;;2.80;99.90;;;;;;5051043;28;20228;-68
2021/11/21 03:50:32;;;;;;;5.75;5.15;;;2.80;99.90;;;;;;5051640;28;20625;-68
2021/11/21 03:52:59;;;;;;;6.20;5.25;;;2.80;99.90;;;;;;5050875;28;20228;-68
2021/11/21 03:55:26;;;;;;;5.80;5.20;;;2.80;99.90;;;;;;5051546;28;20201;-68
2021/11/21 03:57:53;;;;;;;5.80;5.30;;;2.80;99.90;;;;;;5051309;28;20224;-68
2021/11/21 04:00:23;;;;;;;6.00;5.05;;;2.80;99.90;;;;;;5051183;28;20209;-68
2021/11/21 04:02:50;;;;;;;6.13;5.32;;;2.80;99.90;;;;;;5050936;28;20582;-68
2021/11/21 04:05:20;;;;;;;5.15;4.47;;;2.80;99.90;;;;;;5050998;28;20823;-67
2021/11/21 04:07:47;;;;;;;5.45;4.68;;;2.80;99.90;;;;;;5051262;28;20629;-67
2021/11/21 04:10:14;;;;;;;6.22;5.07;;;2.80;99.90;;;;;;5051117;28;20236;-68
2021/11/21 04:12:41;;;;;;;11.38;4.97;;;2.70;99.90;;;;;;5050484;28;20208;-67
2021/11/21 04:15:09;;;;;;;4.75;4.05;;;2.60;99.90;;;;;;5050828;28;20197;-68
2021/11/21 04:17:36;;;;;;;4.90;4.40;;;2.50;99.90;;;;;;5050744;28;20236;-69
2021/11/21 04:20:04;;;;;;;7.88;4.80;;;2.50;99.90;;;;;;5051139;28;20193;-68
2021/11/21 04:22:33;;;;;;;10.02;5.30;;;2.40;99.90;;;;;;5050354;28;20205;-68
2021/11/21 04:24:59;;;;;;;11.00;4.72;;;2.30;99.90;;;;;;5050755;28;20204;-68
2021/11/21 04:27:27;;;;;;;6.85;5.53;;;2.30;99.90;;;;;;5051003;28;20227;-68
2021/11/21 04:29:55;;;;;;;5.55;4.97;;;2.30;99.90;;;;;;5050569;28;20229;-69
2021/11/21 04:32:22;;;;;;;5.63;5.03;;;2.30;99.90;;;;;;5050184;28;20229;-68
2021/11/21 04:34:49;;;;;;;5.50;4.90;;;2.40;99.90;;;;;;5050720;28;20204;-68
2021/11/21 04:37:16;;;;;;;6.85;4.90;;;2.40;99.90;;;;;;5050774;28;20574;-68
2021/11/21 04:39:44;;;;;;;26.85;5.60;;;2.40;99.90;;;;;;5050740;28;20204;-68
2021/11/21 04:42:11;;;;;;;8.10;5.18;;;2.40;99.90;;;;;;5049952;28;20213;-68
2021/11/21 04:44:38;;;;;;;4.53;3.97;;;2.40;99.90;;;;;;5050607;28;20672;-68
2021/11/21 04:47:05;;;;;;;5.35;4.07;;;2.30;99.90;;;;;;5049983;28;20221;-68
2021/11/21 04:49:32;;;;;;;6.25;5.20;;;2.30;99.90;;;;;;5050717;28;20228;-68
2021/11/21 04:51:59;;;;;;;6.38;4.70;;;2.30;99.90;;;;;;5049752;28;20680;-68
2021/11/21 04:54:26;;;;;;;12.30;5.30;;;2.30;99.90;;;;;;5050511;28;20627;-67
2021/11/21 04:56:54;;;;;;;5.28;4.57;;;2.30;99.90;;;;;;5050361;28;20708;-68
2021/11/21 04:59:21;;;;;;;7.85;5.13;;;2.30;99.90;;;;;;5050354;28;20213;-68
2021/11/21 05:01:49;;;;;;;4.93;4.25;;;2.30;99.90;;;;;;5049930;28;20259;-67
2021/11/21 05:04:16;;;;;;;6.15;4.70;;;2.40;99.90;;;;;;5049954;28;20225;-68
2021/11/21 05:06:43;;;;;;;9.20;5.20;;;2.40;99.90;;;;;;5050561;28;20243;-68
2021/11/21 05:09:09;;;;;;;6.70;5.35;;;2.30;99.90;;;;;;5050310;28;20221;-68
2021/11/21 05:11:36;;;;;;;7.07;5.30;;;2.30;99.90;;;;;;5049903;28;20208;-68
2021/11/21 05:14:05;;;;;;;5.20;4.70;;;2.30;99.90;;;;;;5050287;28;20232;-68
2021/11/21 05:16:33;;;;;;;7.70;5.30;;;2.30;99.90;;;;;;5050234;28;20279;-67
2021/11/21 05:19:00;;;;;;;5.60;4.45;;;2.30;99.90;;;;;;5050199;28;20691;-67
2021/11/21 05:21:26;;;;;;;11.63;5.00;;;2.30;99.90;;;;;;5049758;28;20282;-67
2021/11/21 05:23:53;;;;;;;18.33;5.25;;;2.30;99.90;;;;;;5050351;28;20212;-67
2021/11/21 05:26:21;;;;;;;5.45;4.38;;;2.20;99.90;;;;;;5050208;28;20231;-67
2021/11/21 05:28:48;;;;;;;7.70;4.78;;;2.20;99.90;;;;;;5043280;28;20635;-67
2021/11/21 05:31:16;;;;;;;4.95;4.45;;;2.20;99.90;;;;;;5038890;28;20193;-67
2021/11/21 05:33:43;;;;;;;5.05;4.55;;;2.20;99.90;;;;;;5039801;28;20602;-67
2021/11/21 05:36:10;;;;;;;4.55;3.97;;;2.20;99.90;;;;;;5040353;28;20193;-68
2021/11/21 05:38:37;;;;;;;5.97;4.22;;;2.20;99.90;;;;;;5042574;28;20201;-67
2021/11/21 05:41:03;;;;;;;4.40;4.00;;;2.20;99.90;;;;;;5047990;28;20208;-68
2021/11/21 05:43:30;;;;;;;4.57;4.10;;;2.20;99.90;;;;;;5054307;28;20212;-67
2021/11/21 05:45:57;;;;;;;5.13;4.20;;;2.20;99.90;;;;;;5041436;28;20256;-67
2021/11/21 05:48:25;;;;;;;4.68;4.18;;;2.20;99.90;;;;;;5179335;22;20770;-69
2021/11/21 05:50:52;;;;;;;5.22;3.42;;;2.20;99.90;;;;;;5043372;28;20575;-69
2021/11/21 05:53:19;;;;;;;3.95;3.63;;;2.30;99.90;;;;;;5042277;28;20200;-69
2021/11/21 05:55:45;;;;;;;4.40;3.58;;;2.40;99.90;;;;;;5043907;28;20193;-69
2021/11/21 05:58:12;;;;;;;4.55;3.50;;;2.50;99.90;;;;;;5042729;28;20236;-70
2021/11/21 06:00:39;;;;;;;3.58;3.20;;;2.50;99.90;;;;;;5042410;28;20186;-70
2021/11/21 06:03:06;;;;;;;3.40;3.10;;;2.50;99.90;;;;;;5042656;28;20198;-70
2021/11/21 06:05:34;;;;;;;3.38;3.05;;;2.40;99.90;;;;;;5041881;28;20198;-70
2021/11/21 06:08:05;;;;;;;3.22;2.90;;;2.30;99.90;;;;;;5041523;28;20221;-69
2021/11/21 06:10:32;;;;;;;3.47;3.17;;;2.20;99.90;;;;;;5039091;28;20271;-70
2021/11/21 06:12:59;;;;;;;4.70;3.40;;;2.20;99.90;;;;;;5043403;28;20201;-70
2021/11/21 06:15:26;;;;;;;4.28;3.50;;;2.20;99.90;;;;;;5040780;28;20251;-70
2021/11/21 06:17:52;;;;;;;7.35;4.15;;;2.10;99.90;;;;;;5042466;28;20213;-69
2021/11/21 06:20:19;;;;;;;7.10;4.00;;;2.10;99.90;;;;;;5042454;28;20198;-70
2021/11/21 06:22:47;;;;;;;11.80;4.03;;;2.20;99.90;;;;;;5040405;28;20197;-70
2021/11/21 06:25:14;;;;;;;3.70;3.40;;;2.10;99.90;;;;;;5042408;28;20197;-70
2021/11/21 06:27:41;;;;;;;11.85;4.15;;;2.10;99.90;;;;;;5043627;28;20693;-69
2021/11/21 06:30:08;;;;;;;6.22;4.93;;;2.00;99.90;;;;;;5040745;28;20222;-70
2021/11/21 06:32:35;;;;;;;5.85;3.95;;;2.00;99.90;;;;;;5041730;28;20200;-70
2021/11/21 06:35:02;;;;;;;4.50;3.75;;;2.00;99.90;;;;;;5042788;28;20216;-69
2021/11/21 06:37:29;;;;;;;7.53;3.72;;;2.00;99.90;;;;;;5041576;28;20505;-70
2021/11/21 06:39:58;;;;;;;10.27;3.70;;;1.90;99.90;;;;;;5042925;28;20243;-70
2021/11/21 06:42:25;;;;;;;5.30;3.83;;;1.80;99.90;;;;;;5042089;28;20205;-70
2021/11/21 06:44:51;;;;;;;6.75;4.10;;;1.80;99.90;;;;;;5038364;28;20201;-71
2021/11/21 06:47:18;;;;;;;6.70;3.72;;;1.80;99.90;;;;;;5039707;28;20700;-70
2021/11/21 06:49:46;;;;;;;5.90;3.75;;;1.70;99.90;;;;;;5042357;28;20811;-69
2021/11/21 06:52:13;;;;;;;5.82;3.97;;;1.70;99.90;;;;;;5039894;28;20200;-70
2021/11/21 06:54:40;;;;;;;4.57;3.65;;;1.80;99.90;;;;;;5041055;28;20599;-69
2021/11/21 06:57:10;;;;;;;9.50;3.90;;;1.80;99.90;;;;;;5048982;28;20229;-70
2021/11/21 06:59:37;;;;;;;6.93;4.20;;;1.90;99.90;;;;;;5052573;28;20193;-70
2021/11/21 07:02:04;;;;;;;5.43;3.90;;;1.90;99.90;;;;;;5052104;28;20197;-70
2021/11/21 07:04:31;;;;;;;18.67;4.72;;;1.90;99.90;;;;;;5052083;28;20197;-70
2021/11/21 07:06:58;;;;;;;14.25;3.95;;;1.90;99.90;;;;;;5051844;28;20350;-69
2021/11/21 07:09:25;;;;;;;11.60;4.70;;;1.90;99.90;;;;;;5050913;28;20282;-70
2021/11/21 07:11:52;;;;;;;4.70;3.55;;;1.90;99.90;;;;;;5051166;28;20208;-70
2021/11/21 07:14:20;;;;;;;12.05;4.07;;;1.90;99.90;;;;;;5050581;28;20255;-69
2021/11/21 07:16:48;;;;;;;7.97;4.10;;;1.90;99.90;;;;;;5051134;28;20961;-69
2021/11/21 07:19:15;;;;;;;12.43;3.88;;;1.80;99.90;;;;;;5051505;28;20237;-70
2021/11/21 07:21:42;;;;;;;7.45;4.00;;;1.90;99.90;;;;;;5051817;28;20739;-70
2021/11/21 07:24:09;;;;;;;4.57;3.88;;;1.90;99.90;;;;;;5052106;28;20205;-70
2021/11/21 07:26:36;;;;;;;6.35;4.30;;;2.00;99.90;;;;;;5047212;28;20275;-71
2021/11/21 07:29:04;;;;;;;7.82;4.88;;;2.00;99.90;;;;;;5051494;28;20622;-70
2021/11/21 07:31:33;;;;;;;6.70;4.43;;;2.10;99.90;;;;;;5050960;28;20241;-70
2021/11/21 07:33:59;;;;;;;5.28;3.90;;;2.20;99.90;;;;;;5051454;28;20201;-70
2021/11/21 07:36:26;;;;;;;5.90;4.10;;;2.20;99.90;;;;;;5043329;28;20200;-70
2021/11/21 07:38:53;;;;;;;5.57;4.65;;;2.30;99.90;;;;;;5030767;28;20209;-70
2021/11/21 07:41:19;;;;;;;6.68;4.40;;;2.30;99.90;;;;;;5030431;28;20206;-70
2021/11/21 07:43:46;;;;;;;7.05;4.78;;;2.40;99.90;;;;;;5030234;28;20217;-70
2021/11/21 07:46:13;;;;;;;7.38;4.72;;;2.40;99.90;;;;;;5030603;28;20642;-71
2021/11/21 07:48:41;;;;;;;5.95;4.30;;;2.50;99.90;;;;;;5030043;28;20221;-70
2021/11/21 07:51:08;;;;;;;10.70;4.57;;;2.50;99.90;;;;;;5030442;28;20237;-68
2021/11/21 07:53:35;;;;;;;7.90;4.15;;;2.60;99.90;;;;;;5030856;28;20595;-70
2021/11/21 07:56:02;;;;;;;6.05;4.80;;;2.60;99.90;;;;;;5029335;28;20205;-70
2021/11/21 07:58:30;;;;;;;6.45;4.63;;;2.60;99.90;;;;;;5041088;28;20278;-68
2021/11/21 08:00:57;;;;;;;10.40;4.60;;;2.60;99.90;;;;;;5014271;28;20684;-69
2021/11/21 08:03:24;;;;;;;7.10;4.53;;;2.70;99.90;;;;;;5029438;28;20202;-71
2021/11/21 08:05:51;;;;;;;5.70;3.97;;;2.70;99.90;;;;;;5029507;28;20628;-70
2021/11/21 08:08:18;;;;;;;8.43;5.15;;;2.70;99.90;;;;;;5030191;28;20251;-70
2021/11/21 08:10:45;;;;;;;5.78;3.70;;;2.70;99.90;;;;;;5030325;28;20218;-70
2021/11/21 08:13:12;;;;;;;6.43;4.55;;;2.80;99.90;;;;;;5029199;28;20703;-69
2021/11/21 08:15:38;;;;;;;7.47;4.85;;;2.80;99.90;;;;;;5030161;28;20561;-69
2021/11/21 08:18:05;;;;;;;9.75;8.68;;;2.80;99.90;;;;;;5028915;28;20217;-72
2021/11/21 08:20:32;;;;;;;10.75;8.60;;;2.90;99.90;;;;;;5028809;28;20669;-70
2021/11/21 08:23:00;;;;;;;7.95;6.07;;;2.90;99.90;;;;;;5028207;28;20646;-71
2021/11/21 08:25:27;;;;;;;7.85;5.65;;;3.00;99.90;;;;;;5028367;28;20210;-71
2021/11/21 08:27:54;;;;;;;8.35;5.82;;;3.00;99.90;;;;;;5027188;28;20218;-70
2021/11/21 08:30:22;;;;;;;9.13;6.68;;;3.00;99.90;;;;;;5028993;28;20283;-71
2021/11/21 08:32:49;;;;;;;8.93;6.20;;;3.00;99.90;;;;;;5028206;28;20288;-71
2021/11/21 08:35:15;;;;;;;12.32;8.82;;;3.00;99.90;;;;;;5029056;28;20255;-71
2021/11/21 08:37:42;;;;;;;8.77;6.43;;;3.10;99.90;;;;;;5029279;28;20225;-71
2021/11/21 08:40:11;;;;;;;9.45;5.60;;;3.10;99.90;;;;;;5029805;28;20248;-71
2021/11/21 08:42:40;;;;;;;11.75;9.15;;;3.20;99.90;;;;;;5029898;28;20205;-71
2021/11/21 08:45:09;;;;;;;10.93;8.20;;;3.20;99.90;;;;;;5029408;28;20201;-71
2021/11/21 08:47:36;;;;;;;10.95;7.75;;;3.30;99.90;;;;;;5029078;28;20705;-70
2021/11/21 08:50:05;;;;;;;11.95;8.27;;;3.30;99.90;;;;;;5029842;28;20214;-71
2021/11/21 08:52:31;;;;;;;16.13;9.73;;;3.40;99.90;;;;;;5030179;28;20198;-71
2021/11/21 08:54:58;;;;;;;14.00;9.77;;;3.40;99.90;;;;;;5030453;28;20723;-71
2021/11/21 08:57:27;;;;;;;13.10;8.70;;;3.50;99.90;;;;;;5029924;28;20651;-71
2021/11/21 08:59:54;;;;;;;15.38;9.32;;;3.50;99.90;;;;;;5029929;28;20202;-71
2021/11/21 09:02:20;;;;;;;12.32;9.00;;;3.60;99.90;;;;;;5028636;28;20209;-71
2021/11/21 09:04:47;;;;;;;10.25;8.38;;;3.60;99.90;;;;;;5029485;28;20198;-71
2021/11/21 09:07:14;;;;;;;12.05;8.32;;;3.60;99.90;;;;;;5029057;28;20601;-71
2021/11/21 09:09:41;;;;;;;9.93;7.78;;;3.60;99.90;;;;;;5029321;28;20214;-70
2021/11/21 09:12:08;;;;;;;14.55;8.95;;;3.70;99.90;;;;;;5031643;28;20554;-71
2021/11/21 09:14:36;;;;;;;11.32;9.15;;;3.70;99.90;;;;;;5034358;28;20198;-71
2021/11/21 09:17:03;;;;;;;10.50;6.82;;;3.70;99.90;;;;;;5043303;28;20229;-71
2021/11/21 09:19:30;;;;;;;10.68;8.00;;;3.70;99.90;;;;;;5054301;28;20205;-71
2021/11/21 09:21:57;;;;;;;13.90;9.15;;;3.70;99.90;;;;;;5053355;28;20207;-71
2021/11/21 09:24:23;;;;;;;14.35;8.85;;;3.70;99.90;;;;;;5053750;28;20680;-70
2021/11/21 09:26:50;;;;;;;14.57;9.30;;;3.70;99.90;;;;;;5053588;28;20224;-71
2021/11/21 09:29:17;;;;;;;13.18;9.60;;;3.70;99.90;;;;;;5055322;28;20209;-72
2021/11/21 09:31:45;;;;;;;16.60;10.05;;;3.70;99.90;;;;;;5053877;28;20228;-71
2021/11/21 09:34:13;;;;;;;13.75;8.85;;;3.70;99.90;;;;;;5053952;28;20201;-72
2021/11/21 09:36:40;;;;;;;12.50;9.30;;;3.70;99.90;;;;;;5054238;28;20224;-71
2021/11/21 09:39:07;;;;;;;13.88;8.35;;;3.70;99.90;;;;;;5054354;28;20209;-71
2021/11/21 09:41:34;;;;;;;18.67;8.70;;;3.70;99.90;;;;;;5055840;28;20201;-71
2021/11/21 09:44:01;;;;;;;12.18;8.80;;;3.80;99.90;;;;;;5054142;28;20204;-71
2021/11/21 09:46:27;;;;;;;12.02;8.65;;;3.70;99.90;;;;;;5051075;28;20250;-71
2021/11/21 09:48:55;;;;;;;11.50;8.43;;;3.80;99.90;;;;;;5052050;28;20205;-71
2021/11/21 09:51:22;;;;;;;12.18;7.97;;;3.80;99.90;;;;;;5053242;28;20306;-71
2021/11/21 09:53:50;;;;;;;11.43;8.55;;;3.80;99.90;;;;;;5053537;28;20208;-70
2021/11/21 09:56:17;;;;;;;12.63;8.30;;;3.90;99.90;;;;;;5052805;28;20211;-71
2021/11/21 09:58:45;;;;;;;12.48;8.73;;;3.90;99.90;;;;;;5053414;28;20919;-70
2021/11/21 10:01:33;;;;;;;14.85;8.90;;;3.90;99.90;;;;;;5052706;28;20884;-70
2021/11/21 10:04:01;;;;;;;14.93;8.48;;;3.90;99.90;;;;;;5053940;28;20201;-70
2021/11/21 10:06:34;;;;;;;11.82;8.30;;;3.90;99.90;;;;;;5053056;28;20201;-70
2021/11/21 10:09:01;;;;;;;9.10;7.55;;;4.00;99.90;;;;;;5053530;28;20209;-70
2021/11/21 10:11:28;;;;;;;10.43;7.60;;;4.00;99.90;;;;;;5052416;28;20715;-70
2021/11/21 10:14:02;;;;;;;12.40;9.07;;;4.00;99.90;;;;;;5053334;28;20223;-70
2021/11/21 10:16:32;;;;;;;11.90;8.30;;;4.00;99.90;;;;;;5053294;28;20265;-71
2021/11/21 10:19:02;;;;;;;13.23;9.18;;;4.00;99.90;;;;;;5053416;28;20211;-70
2021/11/21 10:21:30;;;;;;;14.23;9.02;;;4.00;99.90;;;;;;5053009;28;20228;-70
2021/11/21 10:24:20;;;;;;;11.55;8.25;;;4.00;99.90;;;;;;5052850;28;20201;-70
2021/11/21 10:26:47;;;;;;;12.77;9.23;;;4.00;99.90;;;;;;5053185;28;20751;-70
2021/11/21 10:29:28;;;;;;;11.15;8.73;;;4.00;99.90;;;;;;5053097;28;20201;-71
2021/11/21 10:31:55;;;;;;;10.70;8.05;;;4.00;99.90;;;;;;5051987;28;20223;-70
2021/11/21 10:34:23;;;;;;;11.43;7.88;;;4.00;99.90;;;;;;5053220;28;20704;-71
2021/11/21 10:36:50;;;;;;;9.27;7.07;;;4.00;99.90;;;;;;5052104;28;20217;-70
2021/11/21 10:39:20;;;;;;;10.95;8.10;;;4.00;99.90;;;;;;5053775;28;20739;-69
2021/11/21 10:41:51;;;;;;;12.20;8.32;;;4.00;99.90;;;;;;5052764;28;20193;-70
2021/11/21 10:44:21;;;;;;;10.85;8.45;;;4.00;99.90;;;;;;5053136;28;20209;-69
2021/11/21 10:46:50;;;;;;;12.88;8.40;;;4.00;99.90;;;;;;5052373;28;20320;-68
2021/11/21 10:49:28;;;;;;;14.85;10.10;;;4.00;99.90;;;;;;5052539;28;20299;-69
2021/11/21 10:52:07;;;;;;;13.85;8.38;;;4.00;99.90;;;;;;5052027;28;20312;-69
2021/11/21 10:54:38;;;;;;;10.35;7.53;;;4.00;99.90;;;;;;5051826;28;20220;-68
2021/11/21 10:57:07;;;;;;;11.10;8.00;;;4.10;99.90;;;;;;5051665;28;20248;-69
2021/11/21 10:59:36;;;;;;;9.43;7.05;;;4.10;99.90;;;;;;5051913;28;20200;-69
2021/11/21 11:02:08;;;;;;;11.57;8.32;;;4.10;99.90;;;;;;5048609;28;20714;-70
2021/11/21 11:04:36;;;;;;;11.25;8.20;;;4.10;99.90;;;;;;5031785;28;20263;-69
2021/11/21 11:07:18;;;;;;;9.23;7.15;;;4.10;99.90;;;;;;5031392;28;20284;-70
2021/11/21 11:09:45;;;;;;;10.95;7.60;;;4.10;99.90;;;;;;5031997;28;20206;-70
2021/11/21 11:12:12;;;;;;;11.82;7.72;;;4.10;99.90;;;;;;5014850;28;20224;-69
2021/11/21 11:14:39;;;;;;;10.60;6.90;;;4.10;99.90;;;;;;5032101;28;20194;-69
2021/11/21 11:17:06;;;;;;;11.93;7.55;;;4.10;99.90;;;;;;5031166;28;20225;-69
2021/11/21 11:19:35;;;;;;;10.32;7.20;;;4.10;99.90;;;;;;5031425;28;20288;-70
2021/11/21 11:22:04;;;;;;;9.07;7.40;;;4.10;99.90;;;;;;5030849;28;20260;-69
2021/11/21 11:24:34;;;;;;;12.70;8.20;;;4.10;99.90;;;;;;5031650;28;20194;-69
2021/11/21 11:27:07;;;;;;;10.48;7.63;;;4.10;99.90;;;;;;5031274;28;20221;-69
2021/11/21 11:29:39;;;;;;;9.40;6.80;;;4.10;99.90;;;;;;5031581;28;20206;-70
2021/11/21 11:32:36;;;;;;;9.30;6.45;;;4.00;99.90;;;;;;5033276;28;20220;-69
2021/11/21 11:35:05;;;;;;;10.23;6.55;;;4.00;99.90;;;;;;4997246;28;20220;-69
2021/11/21 11:37:40;;;;;;;7.88;6.03;;;4.10;99.90;;;;;;5045437;28;20578;-70
2021/11/21 11:40:52;;;;;;;9.55;6.50;;;4.10;99.90;;;;;;5033094;28;20248;-70
2021/11/21 11:43:34;;;;;;;14.82;7.28;;;4.10;99.90;;;;;;5011665;28;20206;-69
2021/11/21 11:46:03;;;;;;;10.48;6.57;;;4.10;99.90;;;;;;5012165;28;20199;-70
2021/11/21 11:48:57;;;;;;;8.70;7.10;;;4.10;99.90;;;;;;5041945;22;20593;-91
2021/11/21 11:54:57;;;;;;;10.52;7.30;;;4.10;99.90;;;;;;5013602;28;20683;-91
2021/11/21 11:57:39;;;;;;;11.73;7.07;;;4.20;99.90;;;;;;5032944;28;20210;-90
2021/11/21 12:00:26;;;;;;;8.68;5.88;;;4.20;99.90;;;;;;5059523;22;20323;-68
2021/11/21 12:02:55;;;;;;;10.80;7.57;;;4.20;99.90;;;;;;5069528;28;20328;-68
2021/11/21 12:05:30;;;;;;;11.15;7.38;;;4.20;99.90;;;;;;5070687;28;20200;-68
2021/11/21 12:10:52;;;;;;;9.38;6.75;;;4.20;99.90;;;;;;5084164;27;20533;-65
2021/11/21 12:13:30;;;;;;;10.10;8.20;;;4.20;99.90;;;;;;5081408;28;20238;-65
2021/11/21 12:16:00;;;;;;;8.93;6.40;;;4.20;99.90;;;;;;5073262;28;20200;-65
2021/11/21 12:18:58;;;;;;;10.70;6.90;;;4.30;99.90;;;;;;5067481;28;20220;-65
2021/11/21 12:21:40;;;;;;;9.90;6.63;;;4.30;99.90;;;;;;5066680;28;20205;-65
2021/11/21 12:24:16;;;;;;;8.48;6.70;;;4.30;99.90;;;;;;5066792;28;20574;-66
2021/11/21 12:26:45;;;;;;;9.23;6.90;;;4.30;99.90;;;;;;5067515;28;20227;-65
2021/11/21 12:29:31;;;;;;;8.15;6.45;;;4.30;99.90;;;;;;5066777;28;20699;-65
2021/11/21 12:32:01;;;;;;;10.30;6.93;;;4.30;99.90;;;;;;5066604;28;20230;-65
2021/11/21 12:34:35;;;;;;;11.15;7.25;;;4.30;99.90;;;;;;5066943;28;20200;-65
2021/11/21 12:37:25;;;;;;;10.20;7.35;;;4.40;99.90;;;;;;5067542;28;20220;-65
2021/11/21 12:39:54;;;;;;;9.52;6.70;;;4.30;99.90;;;;;;5065213;28;20197;-65
2021/11/21 12:42:28;;;;;;;9.57;6.70;;;4.30;99.90;;;;;;5066660;28;20602;-65
2021/11/21 12:45:06;;;;;;;8.63;6.43;;;4.30;99.90;;;;;;5067655;28;20201;-65
2021/11/21 12:47:33;;;;;;;8.98;6.10;;;4.30;99.90;;;;;;5067075;28;20216;-66
2021/11/21 12:50:00;;;;;;;9.15;6.75;;;4.30;99.90;;;;;;5066907;28;20221;-66
2021/11/21 12:52:27;;;;;;;8.15;5.75;;;4.30;99.90;;;;;;5066031;28;20207;-65
2021/11/21 12:54:55;;;;;;;8.85;6.05;;;4.30;99.90;;;;;;5050612;28;20204;-66
2021/11/21 12:57:21;;;;;;;9.00;6.10;;;4.20;99.90;;;;;;5066596;28;20700;-66
2021/11/21 12:59:56;;;;;;;9.40;6.18;;;4.20;99.90;;;;;;5066742;28;20192;-66
2021/11/21 13:02:25;;;;;;;8.77;6.32;;;4.20;99.90;;;;;;5066018;28;20207;-66
2021/11/21 13:04:55;;;;;;;6.95;6.07;;;4.20;99.90;;;;;;5066296;28;21489;-66
2021/11/21 13:07:26;;;;;;;9.35;6.13;;;4.20;99.90;;;;;;5066259;28;20222;-66